createdAt,value
2022-09-11T00:00:34.202Z,25.88
2022-09-11T00:01:36.576Z,25.84
2022-09-11T00:02:38.365Z,25.84
2022-09-11T00:03:42.754Z,25.85
2022-09-11T00:04:44.619Z,25.85
2022-09-11T00:05:46.604Z,25.84
2022-09-11T00:06:48.642Z,25.84
2022-09-11T00:07:50.863Z,25.80
2022-09-11T00:08:59.753Z,25.82
2022-09-11T00:10:01.419Z,25.83
2022-09-11T00:11:07.634Z,25.82
2022-09-11T00:12:10.201Z,25.84
2022-09-11T00:13:15.513Z,25.81
2022-09-11T00:14:17.235Z,25.82
2022-09-11T00:15:18.939Z,25.80
2022-09-11T00:16:27.130Z,25.80
2022-09-11T00:17:28.919Z,25.79
2022-09-11T00:18:30.716Z,25.79
2022-09-11T00:19:32.459Z,25.76
2022-09-11T00:20:35.339Z,25.77
2022-09-11T00:21:37.139Z,25.77
2022-09-11T00:22:39.655Z,25.76
2022-09-11T00:23:41.455Z,25.71
2022-09-11T00:24:43.312Z,25.75
2022-09-11T00:25:46.435Z,25.74
2022-09-11T00:26:48.380Z,25.68
2022-09-11T00:27:51.979Z,25.72
2022-09-11T00:28:55.286Z,25.69
2022-09-11T00:29:57.070Z,25.74
2022-09-11T00:31:05.280Z,25.72
2022-09-11T00:32:07.011Z,25.73
2022-09-11T00:33:09.714Z,25.72
2022-09-11T00:34:11.831Z,25.72
2022-09-11T00:35:14.130Z,25.71
2022-09-11T00:36:21.546Z,25.70
2022-09-11T00:37:23.200Z,25.73
2022-09-11T00:38:29.854Z,25.70
2022-09-11T00:39:31.506Z,25.71
2022-09-11T00:40:33.274Z,25.69
2022-09-11T00:41:38.414Z,25.64
2022-09-11T00:42:40.172Z,25.68
2022-09-11T00:43:56.932Z,25.70
2022-09-11T00:45:01.915Z,25.69
2022-09-11T00:46:05.850Z,25.69
2022-09-11T00:47:09.813Z,25.63
2022-09-11T00:48:17.903Z,25.67
2022-09-11T00:49:26.999Z,25.67
2022-09-11T00:50:31.533Z,25.67
2022-09-11T00:51:37.896Z,25.66
2022-09-11T00:52:52.473Z,25.64
2022-09-11T00:53:58.086Z,25.67
2022-09-11T00:55:04.250Z,25.66
2022-09-11T00:56:09.802Z,25.65
2022-09-11T00:57:11.750Z,25.59
2022-09-11T00:58:19.101Z,25.63
2022-09-11T00:59:25.283Z,25.63
2022-09-11T01:00:27.159Z,25.62
2022-09-11T01:01:28.910Z,25.62
2022-09-11T01:02:33.902Z,25.60
2022-09-11T01:03:35.883Z,25.57
2022-09-11T01:04:37.876Z,25.60
2022-09-11T01:05:41.640Z,25.58
2022-09-11T01:06:43.956Z,25.58
2022-09-11T01:07:47.612Z,25.58
2022-09-11T01:08:49.334Z,25.58
2022-09-11T01:09:51.836Z,25.57
2022-09-11T01:11:14.615Z,25.56
2022-09-11T01:12:23.847Z,25.60
2022-09-11T01:13:43.978Z,25.61
2022-09-11T01:14:54.903Z,25.63
2022-09-11T01:16:06.020Z,25.58
2022-09-11T01:17:26.072Z,25.62
2022-09-11T01:18:51.791Z,25.57
2022-09-11T01:20:17.715Z,25.63
2022-09-11T01:21:52.568Z,25.63
2022-09-11T01:23:22.258Z,25.66
2022-09-11T01:24:41.874Z,25.46
2022-09-11T01:26:22.430Z,25.67
2022-09-11T01:27:51.044Z,25.69
2022-09-11T01:29:02.941Z,25.55
2022-09-11T01:30:11.680Z,25.59
2022-09-11T01:31:19.343Z,25.55
2022-09-11T01:32:24.808Z,25.53
2022-09-11T01:33:46.081Z,25.52
2022-09-11T01:35:06.971Z,25.58
2022-09-11T01:36:18.609Z,25.53
2022-09-11T01:37:29.195Z,25.52
2022-09-11T01:39:09.389Z,25.52
2022-09-11T01:40:24.359Z,25.58
2022-09-11T01:41:41.478Z,25.56
2022-09-11T01:42:46.422Z,25.53
2022-09-11T01:44:14.643Z,25.55
2022-09-11T01:45:17.220Z,25.52
2022-09-11T01:46:23.228Z,25.48
2022-09-11T01:47:29.239Z,25.46
2022-09-11T01:48:49.456Z,25.50
2022-09-11T01:49:56.335Z,25.47
2022-09-11T01:51:04.491Z,25.46
2022-09-11T01:52:12.981Z,25.44
2022-09-11T01:53:22.154Z,25.42
2022-09-11T01:54:29.819Z,25.43
2022-09-11T01:55:40.339Z,25.42
2022-09-11T01:56:48.786Z,25.43
2022-09-11T01:57:57.191Z,25.41
2022-09-11T01:59:04.510Z,25.42
2022-09-11T02:00:10.930Z,25.41
2022-09-11T02:01:30.288Z,25.42
2022-09-11T02:02:40.312Z,25.38
2022-09-11T02:03:50.083Z,25.39
2022-09-11T02:05:00.666Z,25.38
2022-09-11T02:06:12.154Z,25.41
2022-09-11T02:07:21.898Z,25.41
2022-09-11T02:08:40.178Z,25.43
2022-09-11T02:09:51.636Z,25.38
2022-09-11T02:11:05.427Z,25.33
2022-09-11T02:12:13.067Z,25.41
2022-09-11T02:13:18.732Z,25.39
2022-09-11T02:14:30.190Z,25.33
2022-09-11T02:15:39.863Z,25.37
2022-09-11T02:17:01.026Z,25.40
2022-09-11T02:18:18.165Z,25.37
2022-09-11T02:19:24.619Z,25.40
2022-09-11T02:20:28.453Z,25.33
2022-09-11T02:21:32.474Z,25.36
2022-09-11T02:22:34.523Z,25.31
2022-09-11T02:23:36.235Z,25.32
2022-09-11T02:24:38.437Z,25.31
2022-09-11T02:25:40.530Z,25.31
2022-09-11T02:26:50.264Z,25.29
2022-09-11T02:27:52.231Z,25.25
2022-09-11T02:28:54.718Z,25.19
2022-09-11T02:29:58.147Z,25.30
2022-09-11T02:31:03.528Z,25.31
2022-09-11T02:32:06.149Z,25.30
2022-09-11T02:33:27.380Z,25.29
2022-09-11T02:34:34.267Z,25.33
2022-09-11T02:35:46.332Z,25.33
2022-09-11T02:37:03.278Z,25.39
2022-09-11T02:38:22.099Z,25.39
2022-09-11T02:39:35.749Z,25.37
2022-09-11T02:40:53.168Z,25.36
2022-09-11T02:42:22.544Z,25.43
2022-09-11T02:43:31.231Z,25.39
2022-09-11T02:44:37.928Z,25.36
2022-09-11T02:45:48.368Z,25.33
2022-09-11T02:47:19.282Z,25.33
2022-09-11T02:48:43.790Z,25.36
2022-09-11T02:49:59.664Z,25.38
2022-09-11T02:51:17.720Z,25.35
2022-09-11T02:52:23.202Z,25.35
2022-09-11T02:53:27.880Z,25.31
2022-09-11T02:54:55.750Z,25.27
2022-09-11T02:56:04.252Z,25.33
2022-09-11T02:57:23.938Z,25.32
2022-09-11T02:58:30.583Z,25.30
2022-09-11T02:59:42.282Z,25.29
2022-09-11T03:00:44.462Z,25.28
2022-09-11T03:01:52.259Z,25.24
2022-09-11T03:02:57.806Z,25.24
2022-09-11T03:03:59.660Z,25.19
2022-09-11T03:05:01.572Z,25.22
2022-09-11T03:06:03.593Z,25.20
2022-09-11T03:07:05.839Z,25.20
2022-09-11T03:08:07.852Z,25.19
2022-09-11T03:09:10.262Z,25.18
2022-09-11T03:10:12.862Z,25.04
2022-09-11T03:11:15.491Z,25.18
2022-09-11T03:12:19.475Z,25.18
2022-09-11T03:13:24.883Z,25.13
2022-09-11T03:14:26.555Z,25.18
2022-09-11T03:15:28.542Z,25.19
2022-09-11T03:16:30.734Z,25.17
2022-09-11T03:17:33.435Z,25.09
2022-09-11T03:18:35.237Z,25.14
2022-09-11T03:19:37.037Z,25.16
2022-09-11T03:20:39.268Z,25.16
2022-09-11T03:21:43.047Z,25.16
2022-09-11T03:22:45.128Z,25.16
2022-09-11T03:23:47.168Z,25.16
2022-09-11T03:24:48.946Z,25.15
2022-09-11T03:25:51.439Z,25.13
2022-09-11T03:26:53.387Z,25.10
2022-09-11T03:27:55.192Z,25.06
2022-09-11T03:28:57.164Z,25.08
2022-09-11T03:29:59.702Z,25.15
2022-09-11T03:31:01.705Z,25.09
2022-09-11T03:32:05.159Z,25.16
2022-09-11T03:33:08.051Z,25.14
2022-09-11T03:34:10.550Z,25.09
2022-09-11T03:35:12.458Z,25.06
2022-09-11T03:36:14.552Z,25.09
2022-09-11T03:37:16.882Z,25.05
2022-09-11T03:38:18.662Z,25.13
2022-09-11T03:39:20.347Z,25.13
2022-09-11T03:40:22.265Z,25.11
2022-09-11T03:41:25.390Z,24.93
2022-09-11T03:42:27.947Z,25.12
2022-09-11T03:43:31.050Z,25.12
2022-09-11T03:44:34.600Z,25.13
2022-09-11T03:45:36.438Z,25.12
2022-09-11T03:46:39.106Z,25.12
2022-09-11T03:47:42.942Z,25.12
2022-09-11T03:48:47.075Z,25.11
2022-09-11T03:49:48.875Z,24.98
2022-09-11T03:50:51.213Z,25.11
2022-09-11T03:51:53.210Z,25.11
2022-09-11T03:52:55.606Z,25.08
2022-09-11T03:53:59.837Z,25.10
2022-09-11T03:55:04.828Z,25.10
2022-09-11T03:56:06.674Z,24.94
2022-09-11T03:57:15.225Z,25.04
2022-09-11T03:58:19.555Z,25.08
2022-09-11T03:59:21.961Z,25.12
2022-09-11T04:00:24.611Z,25.11
2022-09-11T04:01:29.946Z,25.11
2022-09-11T04:02:31.874Z,25.10
2022-09-11T04:03:33.715Z,25.09
2022-09-11T04:04:36.995Z,25.08
2022-09-11T04:05:39.236Z,25.09
2022-09-11T04:06:41.031Z,25.06
2022-09-11T04:07:42.798Z,25.03
2022-09-11T04:08:45.507Z,25.08
2022-09-11T04:09:47.255Z,25.08
2022-09-11T04:10:49.014Z,25.06
2022-09-11T04:11:50.769Z,25.07
2022-09-11T04:13:01.023Z,25.09
2022-09-11T04:14:03.631Z,25.08
2022-09-11T04:15:06.224Z,25.07
2022-09-11T04:16:14.661Z,25.06
2022-09-11T04:17:19.211Z,25.06
2022-09-11T04:18:21.295Z,24.99
2022-09-11T04:19:23.802Z,25.01
2022-09-11T04:20:25.662Z,25.07
2022-09-11T04:21:27.909Z,24.99
2022-09-11T04:22:31.594Z,25.06
2022-09-11T04:23:34.239Z,25.05
2022-09-11T04:24:36.095Z,25.05
2022-09-11T04:25:39.036Z,25.00
2022-09-11T04:26:41.655Z,24.90
2022-09-11T04:27:52.211Z,25.06
2022-09-11T04:28:54.044Z,25.07
2022-09-11T04:29:55.747Z,25.06
2022-09-11T04:31:03.627Z,24.96
2022-09-11T04:32:07.555Z,25.00
2022-09-11T04:33:11.300Z,25.06
2022-09-11T04:34:13.163Z,24.98
2022-09-11T04:35:14.942Z,25.04
2022-09-11T04:36:26.156Z,25.05
2022-09-11T04:37:29.123Z,25.02
2022-09-11T04:38:30.792Z,25.04
2022-09-11T04:39:32.902Z,25.02
2022-09-11T04:40:35.239Z,25.02
2022-09-11T04:41:37.142Z,25.02
2022-09-11T04:42:39.192Z,25.03
2022-09-11T04:43:41.913Z,25.01
2022-09-11T04:44:49.346Z,25.03
2022-09-11T04:45:51.058Z,25.03
2022-09-11T04:46:53.303Z,25.01
2022-09-11T04:47:57.623Z,25.03
2022-09-11T04:48:59.462Z,25.02
2022-09-11T04:50:02.075Z,25.02
2022-09-11T04:51:06.768Z,24.76
2022-09-11T04:52:08.616Z,25.02
2022-09-11T04:53:10.419Z,25.00
2022-09-11T04:54:16.766Z,25.00
2022-09-11T04:55:19.922Z,25.03
2022-09-11T04:56:21.658Z,25.01
2022-09-11T04:57:23.768Z,25.00
2022-09-11T04:58:26.020Z,24.99
2022-09-11T04:59:28.146Z,24.97
2022-09-11T05:00:35.298Z,25.01
2022-09-11T05:01:37.110Z,24.86
2022-09-11T05:02:40.705Z,25.01
2022-09-11T05:03:45.975Z,25.01
2022-09-11T05:04:47.809Z,25.00
2022-09-11T05:05:49.628Z,24.93
2022-09-11T05:06:51.411Z,24.99
2022-09-11T05:07:53.880Z,24.99
2022-09-11T05:08:56.791Z,24.94
2022-09-11T05:09:58.745Z,24.99
2022-09-11T05:11:00.920Z,24.99
2022-09-11T05:12:03.186Z,24.98
2022-09-11T05:13:08.365Z,24.96
2022-09-11T05:14:10.186Z,24.91
2022-09-11T05:15:12.927Z,24.93
2022-09-11T05:16:17.281Z,24.93
2022-09-11T05:17:19.094Z,24.99
2022-09-11T05:18:22.149Z,24.98
2022-09-11T05:19:26.385Z,24.93
2022-09-11T05:20:28.204Z,24.98
2022-09-11T05:21:32.017Z,24.97
2022-09-11T05:22:33.778Z,24.97
2022-09-11T05:23:36.943Z,24.97
2022-09-11T05:24:39.561Z,24.97
2022-09-11T05:25:41.741Z,24.96
2022-09-11T05:26:43.639Z,24.96
2022-09-11T05:27:47.139Z,24.94
2022-09-11T05:28:57.587Z,24.89
2022-09-11T05:29:59.938Z,24.98
2022-09-11T05:31:12.448Z,24.96
2022-09-11T05:32:14.397Z,24.99
2022-09-11T05:33:16.647Z,24.97
2022-09-11T05:34:18.614Z,24.97
2022-09-11T05:35:21.149Z,24.96
2022-09-11T05:36:23.307Z,24.96
2022-09-11T05:37:25.621Z,24.95
2022-09-11T05:38:28.046Z,24.96
2022-09-11T05:39:29.795Z,24.95
2022-09-11T05:40:32.459Z,24.95
2022-09-11T05:41:34.554Z,24.94
2022-09-11T05:42:36.299Z,24.94
2022-09-11T05:43:39.274Z,24.94
2022-09-11T05:44:40.990Z,24.94
2022-09-11T05:45:45.761Z,24.94
2022-09-11T05:46:48.699Z,24.93
2022-09-11T05:47:53.167Z,24.94
2022-09-11T05:48:59.113Z,24.95
2022-09-11T05:50:03.289Z,24.95
2022-09-11T05:51:12.925Z,24.85
2022-09-11T05:52:14.935Z,24.97
2022-09-11T05:53:17.493Z,24.92
2022-09-11T05:54:19.513Z,24.95
2022-09-11T05:55:21.681Z,24.95
2022-09-11T05:56:25.182Z,24.92
2022-09-11T05:57:31.093Z,24.96
2022-09-11T05:58:33.002Z,24.96
2022-09-11T05:59:34.878Z,24.94
2022-09-11T06:00:37.711Z,24.93
2022-09-11T06:01:39.624Z,24.92
2022-09-11T06:02:50.969Z,24.94
2022-09-11T06:03:53.439Z,24.93
2022-09-11T06:04:57.032Z,24.94
2022-09-11T06:06:01.450Z,24.92
2022-09-11T06:07:03.741Z,24.87
2022-09-11T06:08:11.136Z,24.94
2022-09-11T06:09:15.714Z,24.96
2022-09-11T06:10:18.074Z,24.86
2022-09-11T06:11:22.118Z,24.96
2022-09-11T06:12:26.220Z,24.99
2022-09-11T06:13:32.731Z,25.00
2022-09-11T06:14:36.038Z,25.03
2022-09-11T06:15:47.245Z,24.97
2022-09-11T06:16:49.956Z,25.00
2022-09-11T06:17:51.823Z,25.09
2022-09-11T06:18:54.364Z,25.11
2022-09-11T06:19:56.597Z,25.11
2022-09-11T06:21:00.069Z,25.17
2022-09-11T06:22:03.353Z,25.22
2022-09-11T06:23:11.371Z,25.25
2022-09-11T06:24:14.032Z,25.28
2022-09-11T06:25:15.945Z,25.20
2022-09-11T06:26:21.428Z,25.33
2022-09-11T06:27:23.306Z,25.33
2022-09-11T06:28:25.478Z,25.42
2022-09-11T06:29:31.167Z,25.44
2022-09-11T06:30:34.739Z,25.50
2022-09-11T06:31:36.470Z,25.51
2022-09-11T06:32:38.274Z,25.53
2022-09-11T06:33:41.133Z,25.54
2022-09-11T06:34:42.947Z,25.52
2022-09-11T06:35:58.182Z,25.59
2022-09-11T06:37:00.083Z,25.68
2022-09-11T06:38:02.942Z,25.71
2022-09-11T06:39:05.411Z,25.73
2022-09-11T06:40:09.515Z,25.62
2022-09-11T06:41:14.991Z,25.78
2022-09-11T06:42:19.058Z,25.83
2022-09-11T06:43:21.599Z,25.84
2022-09-11T06:44:24.624Z,25.88
2022-09-11T06:45:30.366Z,25.92
2022-09-11T06:46:32.249Z,25.85
2022-09-11T06:47:35.490Z,25.96
2022-09-11T06:48:38.386Z,25.98
2022-09-11T06:49:41.124Z,26.01
2022-09-11T06:51:14.302Z,26.09
2022-09-11T06:52:17.523Z,26.12
2022-09-11T06:53:28.818Z,26.14
2022-09-11T06:54:30.660Z,25.97
2022-09-11T06:55:33.803Z,26.02
2022-09-11T06:56:42.118Z,26.17
2022-09-11T06:57:44.346Z,26.20
2022-09-11T06:58:50.515Z,26.22
2022-09-11T06:59:52.818Z,26.22
2022-09-11T07:00:57.289Z,26.17
2022-09-11T07:02:00.899Z,26.15
2022-09-11T07:03:04.531Z,26.26
2022-09-11T07:04:06.486Z,26.29
2022-09-11T07:05:10.934Z,26.29
2022-09-11T07:06:15.446Z,26.31
2022-09-11T07:07:19.855Z,26.33
2022-09-11T07:08:24.876Z,26.32
2022-09-11T07:09:27.310Z,26.35
2022-09-11T07:10:33.030Z,26.35
2022-09-11T07:11:36.471Z,26.36
2022-09-11T07:12:38.983Z,26.37
2022-09-11T07:13:42.063Z,26.36
2022-09-11T07:14:43.801Z,26.34
2022-09-11T07:15:59.970Z,26.41
2022-09-11T07:17:01.703Z,26.43
2022-09-11T07:18:04.058Z,26.42
2022-09-11T07:19:09.755Z,26.41
2022-09-11T07:20:13.510Z,26.41
2022-09-11T07:21:21.610Z,26.42
2022-09-11T07:22:26.919Z,26.45
2022-09-11T07:23:29.284Z,26.46
2022-09-11T07:24:31.293Z,26.45
2022-09-11T07:25:38.177Z,26.36
2022-09-11T07:26:41.489Z,26.44
2022-09-11T07:27:59.167Z,26.50
2022-09-11T07:29:01.390Z,26.49
2022-09-11T07:30:04.454Z,26.47
2022-09-11T07:31:19.974Z,26.47
2022-09-11T07:32:22.742Z,26.46
2022-09-11T07:33:24.479Z,26.45
2022-09-11T07:34:28.198Z,26.49
2022-09-11T07:35:31.829Z,26.48
2022-09-11T07:36:35.197Z,26.47
2022-09-11T07:37:39.699Z,26.49
2022-09-11T07:38:47.030Z,26.47
2022-09-11T07:39:50.393Z,26.50
2022-09-11T07:40:56.676Z,26.50
2022-09-11T07:41:58.494Z,26.48
2022-09-11T07:43:03.703Z,26.38
2022-09-11T07:44:06.691Z,26.37
2022-09-11T07:45:10.309Z,26.49
2022-09-11T07:46:13.052Z,26.41
2022-09-11T07:47:14.922Z,26.48
2022-09-11T07:48:19.684Z,26.39
2022-09-11T07:49:21.681Z,26.48
2022-09-11T07:50:24.359Z,26.48
2022-09-11T07:51:27.040Z,26.45
2022-09-11T07:52:31.956Z,26.49
2022-09-11T07:53:58.026Z,26.54
2022-09-11T07:55:01.534Z,26.54
2022-09-11T07:56:07.691Z,26.52
2022-09-11T07:57:09.474Z,26.45
2022-09-11T07:58:11.313Z,26.41
2022-09-11T07:59:13.186Z,26.49
2022-09-11T08:00:18.794Z,26.50
2022-09-11T08:01:29.812Z,26.49
2022-09-11T08:02:31.993Z,26.49
2022-09-11T08:03:35.519Z,26.48
2022-09-11T08:04:38.650Z,26.49
2022-09-11T08:05:40.999Z,26.49
2022-09-11T08:06:46.505Z,26.45
2022-09-11T08:07:56.459Z,26.35
2022-09-11T08:09:01.831Z,26.49
2022-09-11T08:10:26.179Z,26.49
2022-09-11T08:11:30.293Z,26.53
2022-09-11T08:12:32.530Z,26.51
2022-09-11T08:13:34.710Z,26.47
2022-09-11T08:14:37.073Z,26.48
2022-09-11T08:15:48.277Z,26.49
2022-09-11T08:16:50.385Z,26.50
2022-09-11T08:17:54.372Z,26.41
2022-09-11T08:18:57.085Z,26.50
2022-09-11T08:19:58.823Z,26.48
2022-09-11T08:21:09.654Z,26.44
2022-09-11T08:22:14.386Z,26.51
2022-09-11T08:23:20.059Z,26.46
2022-09-11T08:24:21.906Z,26.49
2022-09-11T08:25:28.639Z,26.49
2022-09-11T08:26:31.860Z,26.50
2022-09-11T08:27:35.678Z,26.47
2022-09-11T08:28:39.051Z,26.48
2022-09-11T08:29:40.800Z,26.48
2022-09-11T08:30:42.816Z,26.49
2022-09-11T08:31:45.383Z,26.48
2022-09-11T08:32:47.974Z,26.48
2022-09-11T08:33:49.751Z,26.49
2022-09-11T08:34:51.854Z,26.49
2022-09-11T08:35:54.182Z,26.48
2022-09-11T08:36:56.302Z,26.48
2022-09-11T08:38:00.474Z,26.49
2022-09-11T08:39:02.886Z,26.47
2022-09-11T08:40:11.319Z,26.45
2022-09-11T08:41:35.149Z,26.49
2022-09-11T08:42:41.744Z,26.54
2022-09-11T08:43:56.756Z,26.49
2022-09-11T08:45:00.664Z,26.55
2022-09-11T08:46:14.903Z,26.56
2022-09-11T08:47:25.026Z,26.53
2022-09-11T08:49:08.177Z,26.59
2022-09-11T08:50:22.166Z,26.57
2022-09-11T08:51:26.299Z,26.61
2022-09-11T08:52:28.816Z,26.56
2022-09-11T08:53:32.686Z,26.55
2022-09-11T08:54:38.314Z,26.53
2022-09-11T08:55:49.363Z,26.46
2022-09-11T08:57:01.249Z,26.54
2022-09-11T08:58:21.118Z,26.56
2022-09-11T08:59:44.715Z,26.58
2022-09-11T09:00:46.433Z,26.60
2022-09-11T09:02:25.511Z,26.63
2022-09-11T09:04:02.758Z,26.55
2022-09-11T09:05:16.555Z,26.67
2022-09-11T09:06:21.643Z,26.61
2022-09-11T09:07:34.914Z,26.60
2022-09-11T09:09:01.560Z,26.63
2022-09-11T09:10:27.371Z,26.65
2022-09-11T09:11:53.227Z,26.65
2022-09-11T09:13:10.055Z,26.64
2022-09-11T09:14:25.169Z,26.64
2022-09-11T09:15:38.392Z,26.61
2022-09-11T09:16:58.090Z,26.62
2022-09-11T09:18:08.809Z,26.61
2022-09-11T09:19:17.447Z,26.59
2022-09-11T09:20:29.950Z,26.58
2022-09-11T09:21:39.994Z,26.56
2022-09-11T09:22:48.067Z,26.54
2022-09-11T09:23:54.933Z,26.57
2022-09-11T09:25:11.956Z,26.56
2022-09-11T09:26:18.962Z,26.57
2022-09-11T09:27:33.819Z,26.58
2022-09-11T09:28:45.018Z,26.58
2022-09-11T09:29:52.647Z,26.54
2022-09-11T09:31:00.511Z,26.56
2022-09-11T09:32:08.243Z,26.57
2022-09-11T09:33:15.665Z,26.56
2022-09-11T09:34:22.054Z,26.58
2022-09-11T09:35:29.320Z,26.56
2022-09-11T09:36:37.748Z,26.54
2022-09-11T09:37:40.751Z,26.56
2022-09-11T09:38:43.531Z,26.50
2022-09-11T09:39:46.410Z,26.50
2022-09-11T09:41:12.947Z,26.60
2022-09-11T09:42:37.395Z,26.63
2022-09-11T09:44:18.970Z,26.67
2022-09-11T09:45:31.423Z,26.68
2022-09-11T09:46:36.273Z,26.65
2022-09-11T09:47:46.851Z,26.58
2022-09-11T09:48:49.475Z,26.61
2022-09-11T09:49:52.489Z,26.51
2022-09-11T09:50:54.471Z,26.53
2022-09-11T09:52:03.549Z,26.57
2022-09-11T09:53:27.663Z,26.54
2022-09-11T09:54:34.152Z,26.62
2022-09-11T09:55:38.952Z,26.61
2022-09-11T09:56:43.236Z,26.61
2022-09-11T09:57:45.257Z,26.61
2022-09-11T09:59:01.174Z,26.60
2022-09-11T10:00:09.464Z,26.61
2022-09-11T10:01:44.157Z,26.68
2022-09-11T10:02:58.640Z,26.67
2022-09-11T10:04:32.715Z,26.74
2022-09-11T10:05:41.694Z,26.71
2022-09-11T10:06:48.937Z,26.68
2022-09-11T10:07:57.193Z,26.66
2022-09-11T10:09:02.783Z,26.66
2022-09-11T10:10:05.632Z,26.64
2022-09-11T10:11:12.261Z,26.42
2022-09-11T10:12:21.802Z,26.48
2022-09-11T10:13:28.362Z,26.64
2022-09-11T10:16:20.091Z,26.75
2022-09-11T10:17:35.326Z,26.71
2022-09-11T10:18:45.423Z,26.70
2022-09-11T10:19:47.177Z,26.70
2022-09-11T10:20:49.095Z,26.67
2022-09-11T10:21:51.557Z,26.63
2022-09-11T10:22:55.137Z,26.65
2022-09-11T10:24:02.711Z,26.62
2022-09-11T10:25:14.366Z,26.66
2022-09-11T10:26:43.730Z,26.72
2022-09-11T10:27:54.098Z,26.73
2022-09-11T10:29:01.284Z,26.65
2022-09-11T10:30:04.313Z,26.71
2022-09-11T10:31:06.884Z,26.60
2022-09-11T10:32:17.151Z,26.69
2022-09-11T10:33:30.967Z,26.69
2022-09-11T10:34:40.695Z,26.71
2022-09-11T10:35:51.276Z,26.71
2022-09-11T10:36:55.355Z,26.71
2022-09-11T10:38:18.122Z,26.76
2022-09-11T10:39:21.863Z,26.75
2022-09-11T10:40:23.735Z,26.74
2022-09-11T10:41:27.730Z,26.72
2022-09-11T10:42:32.036Z,26.70
2022-09-11T10:43:53.720Z,26.71
2022-09-11T10:45:07.412Z,26.74
2022-09-11T10:46:18.363Z,26.77
2022-09-11T10:47:25.690Z,26.76
2022-09-11T10:48:27.421Z,26.75
2022-09-11T10:49:29.091Z,26.70
2022-09-11T10:50:31.063Z,26.72
2022-09-11T10:51:35.470Z,26.64
2022-09-11T10:52:58.908Z,26.75
2022-09-11T10:54:34.515Z,26.83
2022-09-11T10:55:40.326Z,26.81
2022-09-11T10:57:00.444Z,26.83
2022-09-11T10:58:13.830Z,26.83
2022-09-11T10:59:22.891Z,26.80
2022-09-11T11:00:32.291Z,26.77
2022-09-11T11:01:34.174Z,26.79
2022-09-11T11:02:44.471Z,26.77
2022-09-11T11:03:46.592Z,26.78
2022-09-11T11:04:48.676Z,26.77
2022-09-11T11:05:56.347Z,26.75
2022-09-11T11:07:17.185Z,26.75
2022-09-11T11:09:00.502Z,26.86
2022-09-11T11:10:02.250Z,26.89
2022-09-11T11:11:34.779Z,26.87
2022-09-11T11:12:57.642Z,26.86
2022-09-11T11:14:22.996Z,26.93
2022-09-11T11:15:43.374Z,26.91
2022-09-11T11:17:13.602Z,26.88
2022-09-11T11:18:20.821Z,26.88
2022-09-11T11:19:56.443Z,26.89
2022-09-11T11:21:13.047Z,26.90
2022-09-11T11:22:39.842Z,26.90
2022-09-11T11:24:02.408Z,26.87
2022-09-11T11:25:46.293Z,26.94
2022-09-11T11:27:04.696Z,26.94
2022-09-11T11:28:24.536Z,26.91
2022-09-11T11:29:56.319Z,26.89
2022-09-11T11:31:16.041Z,26.91
2022-09-11T11:32:46.889Z,26.91
2022-09-11T11:34:09.305Z,26.91
2022-09-11T11:35:35.280Z,26.94
2022-09-11T11:36:44.222Z,26.90
2022-09-11T11:37:48.618Z,26.87
2022-09-11T11:39:02.130Z,26.86
2022-09-11T11:40:03.892Z,26.86
2022-09-11T11:41:26.941Z,26.82
2022-09-11T11:42:39.976Z,26.87
2022-09-11T11:43:44.802Z,26.87
2022-09-11T11:44:52.237Z,26.81
2022-09-11T11:46:09.945Z,26.84
2022-09-11T11:47:12.906Z,26.87
2022-09-11T11:48:26.980Z,26.79
2022-09-11T11:49:43.940Z,26.78
2022-09-11T11:50:59.515Z,26.89
2022-09-11T11:52:13.363Z,26.85
2022-09-11T11:53:24.818Z,26.88
2022-09-11T11:54:32.970Z,26.90
2022-09-11T11:56:00.523Z,26.84
2022-09-11T11:57:20.674Z,26.95
2022-09-11T11:58:40.459Z,26.94
2022-09-11T11:59:58.356Z,26.95
2022-09-11T12:01:04.570Z,26.88
2022-09-11T12:02:09.383Z,26.90
2022-09-11T12:03:22.007Z,26.87
2022-09-11T12:04:26.562Z,26.91
2022-09-11T12:05:32.964Z,26.88
2022-09-11T12:06:35.328Z,26.90
2022-09-11T12:07:39.051Z,26.88
2022-09-11T12:08:47.833Z,26.88
2022-09-11T12:09:52.249Z,26.89
2022-09-11T12:11:06.414Z,26.90
2022-09-11T12:12:08.485Z,26.92
2022-09-11T12:13:16.766Z,26.89
2022-09-11T12:14:29.717Z,26.92
2022-09-11T12:15:34.429Z,26.93
2022-09-11T12:16:36.613Z,26.92
2022-09-11T12:17:40.248Z,26.90
2022-09-11T12:19:01.623Z,26.94
2022-09-11T12:20:12.141Z,26.97
2022-09-11T12:21:22.996Z,26.96
2022-09-11T12:22:38.569Z,26.96
2022-09-11T12:24:03.247Z,27.01
2022-09-11T12:25:31.220Z,27.04
2022-09-11T12:26:33.379Z,27.03
2022-09-11T12:27:35.083Z,26.98
2022-09-11T12:28:37.960Z,26.96
2022-09-11T12:29:55.526Z,26.94
2022-09-11T12:31:16.790Z,26.92
2022-09-11T12:32:25.775Z,26.99
2022-09-11T12:33:48.578Z,27.00
2022-09-11T12:34:50.260Z,27.01
2022-09-11T12:35:53.544Z,26.94
2022-09-11T12:37:02.279Z,26.95
2022-09-11T12:38:06.923Z,26.96
2022-09-11T12:39:37.243Z,26.99
2022-09-11T12:41:07.394Z,27.03
2022-09-11T12:42:22.998Z,27.01
2022-09-11T12:43:34.993Z,27.02
2022-09-11T12:44:48.619Z,27.02
2022-09-11T12:45:50.417Z,27.00
2022-09-11T12:46:55.069Z,26.96
2022-09-11T12:48:05.094Z,26.97
2022-09-11T12:49:23.297Z,26.97
2022-09-11T12:50:28.437Z,26.99
2022-09-11T12:51:35.440Z,26.96
2022-09-11T12:52:50.942Z,26.98
2022-09-11T12:54:00.857Z,26.91
2022-09-11T12:55:07.777Z,26.97
2022-09-11T12:56:19.464Z,26.97
2022-09-11T12:57:30.893Z,26.98
2022-09-11T12:58:43.310Z,26.99
2022-09-11T12:59:53.578Z,26.99
2022-09-11T13:01:15.635Z,26.99
2022-09-11T13:02:30.435Z,27.00
2022-09-11T13:03:33.394Z,26.96
2022-09-11T13:04:35.446Z,26.98
2022-09-11T13:05:40.282Z,26.95
2022-09-11T13:07:17.020Z,26.97
2022-09-11T13:08:26.252Z,27.00
2022-09-11T13:09:34.672Z,27.02
2022-09-11T13:10:39.203Z,26.98
2022-09-11T13:11:55.001Z,27.00
2022-09-11T13:13:26.893Z,27.00
2022-09-11T13:14:28.517Z,27.03
2022-09-11T13:15:43.474Z,27.03
2022-09-11T13:16:45.150Z,27.02
2022-09-11T13:17:47.162Z,26.93
2022-09-11T13:18:48.924Z,26.98
2022-09-11T13:19:51.692Z,26.92
2022-09-11T13:21:20.228Z,27.02
2022-09-11T13:22:31.334Z,27.02
2022-09-11T13:23:46.830Z,26.99
2022-09-11T13:24:48.541Z,27.02
2022-09-11T13:25:50.282Z,27.00
2022-09-11T13:26:55.714Z,26.95
2022-09-11T13:28:01.437Z,26.97
2022-09-11T13:29:03.224Z,26.98
2022-09-11T13:30:06.933Z,26.99
2022-09-11T13:31:17.324Z,26.98
2022-09-11T13:32:19.306Z,26.97
2022-09-11T13:33:24.613Z,26.98
2022-09-11T13:34:29.687Z,26.98
2022-09-11T13:35:32.544Z,27.01
2022-09-11T13:36:36.109Z,26.94
2022-09-11T13:37:45.654Z,26.99
2022-09-11T13:38:54.713Z,26.96
2022-09-11T13:39:57.000Z,26.99
2022-09-11T13:41:08.462Z,27.01
2022-09-11T13:42:16.348Z,26.99
2022-09-11T13:43:36.057Z,27.05
2022-09-11T13:44:44.352Z,27.06
2022-09-11T13:45:46.341Z,27.06
2022-09-11T13:46:52.293Z,27.03
2022-09-11T13:47:54.803Z,27.03
2022-09-11T13:49:19.406Z,27.01
2022-09-11T13:50:23.449Z,27.03
2022-09-11T13:51:29.986Z,27.04
2022-09-11T13:52:34.235Z,27.04
2022-09-11T13:53:36.104Z,27.03
2022-09-11T13:54:43.268Z,27.02
2022-09-11T13:55:51.414Z,27.03
2022-09-11T13:56:55.983Z,27.03
2022-09-11T13:57:58.617Z,27.03
2022-09-11T13:59:02.816Z,27.04
2022-09-11T14:00:05.031Z,27.02
2022-09-11T14:01:16.778Z,27.03
2022-09-11T14:02:51.306Z,27.08
2022-09-11T14:03:53.134Z,27.11
2022-09-11T14:05:00.629Z,27.07
2022-09-11T14:06:09.256Z,27.05
2022-09-11T14:07:27.233Z,27.04
2022-09-11T14:08:32.539Z,27.09
2022-09-11T14:09:34.334Z,27.08
2022-09-11T14:10:59.295Z,27.11
2022-09-11T14:12:04.789Z,27.10
2022-09-11T14:13:33.660Z,27.12
2022-09-11T14:14:36.903Z,27.08
2022-09-11T14:15:43.220Z,27.10
2022-09-11T14:16:54.718Z,27.07
2022-09-11T14:17:57.039Z,27.05
2022-09-11T14:19:20.908Z,27.11
2022-09-11T14:20:24.093Z,27.01
2022-09-11T14:21:32.757Z,27.01
2022-09-11T14:22:35.878Z,27.10
2022-09-11T14:23:43.712Z,27.08
2022-09-11T14:24:55.989Z,27.09
2022-09-11T14:26:09.524Z,27.11
2022-09-11T14:27:36.672Z,27.15
2022-09-11T14:28:58.110Z,27.15
2022-09-11T14:30:02.586Z,27.17
2022-09-11T14:31:07.762Z,27.09
2022-09-11T14:32:41.923Z,27.21
2022-09-11T14:33:43.803Z,27.17
2022-09-11T14:34:45.582Z,27.15
2022-09-11T14:35:48.482Z,27.12
2022-09-11T14:36:56.399Z,27.10